sensor_id;sensor_type;location;lat;lon;timestamp;temperature;humidity
57434;DHT22;43277;52.672;6.984;2023-06-10T00:01:48;17.20;99.90
57434;DHT22;43277;52.672;6.984;2023-06-10T00:04:14;17.20;99.90
57434;DHT22;43277;52.672;6.984;2023-06-10T00:06:40;17.10;99.90
57434;DHT22;43277;52.672;6.984;2023-06-10T00:09:06;17.00;99.90
57434;DHT22;43277;52.672;6.984;2023-06-10T00:11:36;17.00;99.90
57434;DHT22;43277;52.672;6.984;2023-06-10T00:14:02;17.00;99.90
57434;DHT22;43277;52.672;6.984;2023-06-10T00:16:28;17.00;99.90
57434;DHT22;43277;52.672;6.984;2023-06-10T00:18:54;16.90;99.90
57434;DHT22;43277;52.672;6.984;2023-06-10T00:21:30;16.80;99.90
57434;DHT22;43277;52.672;6.984;2023-06-10T00:24:06;16.80;99.90
57434;DHT22;43277;52.672;6.984;2023-06-10T00:26:32;16.80;99.90
57434;DHT22;43277;52.672;6.984;2023-06-10T00:28:59;16.70;99.90
57434;DHT22;43277;52.672;6.984;2023-06-10T00:31:24;16.70;99.90
57434;DHT22;43277;52.672;6.984;2023-06-10T00:33:51;16.70;99.90
57434;DHT22;43277;52.672;6.984;2023-06-10T00:36:17;16.60;99.90
57434;DHT22;43277;52.672;6.984;2023-06-10T00:38:43;16.60;99.90
57434;DHT22;43277;52.672;6.984;2023-06-10T00:41:09;16.60;99.90
57434;DHT22;43277;52.672;6.984;2023-06-10T00:43:34;16.50;99.90
57434;DHT22;43277;52.672;6.984;2023-06-10T00:46:00;16.50;99.90
57434;DHT22;43277;52.672;6.984;2023-06-10T00:48:27;16.50;99.90
57434;DHT22;43277;52.672;6.984;2023-06-10T00:50:52;16.50;99.90
57434;DHT22;43277;52.672;6.984;2023-06-10T00:53:18;16.50;99.90
57434;DHT22;43277;52.672;6.984;2023-06-10T00:55:44;16.30;99.90
57434;DHT22;43277;52.672;6.984;2023-06-10T00:58:10;16.40;99.90
57434;DHT22;43277;52.672;6.984;2023-06-10T01:00:36;16.30;99.90
57434;DHT22;43277;52.672;6.984;2023-06-10T01:03:02;16.30;99.90
57434;DHT22;43277;52.672;6.984;2023-06-10T01:05:33;16.30;99.90
57434;DHT22;43277;52.672;6.984;2023-06-10T01:08:23;16.20;99.90
57434;DHT22;43277;52.672;6.984;2023-06-10T01:10:57;16.30;99.90
57434;DHT22;43277;52.672;6.984;2023-06-10T01:13:25;16.20;99.90
57434;DHT22;43277;52.672;6.984;2023-06-10T01:15:54;16.20;99.90
57434;DHT22;43277;52.672;6.984;2023-06-10T01:18:21;16.20;99.90
57434;DHT22;43277;52.672;6.984;2023-06-10T01:20:47;16.10;99.90
57434;DHT22;43277;52.672;6.984;2023-06-10T01:23:14;16.10;99.90
57434;DHT22;43277;52.672;6.984;2023-06-10T01:25:53;16.10;99.90
57434;DHT22;43277;52.672;6.984;2023-06-10T01:34:00;16.00;99.90
57434;DHT22;43277;52.672;6.984;2023-06-10T01:36:27;16.00;99.90
57434;DHT22;43277;52.672;6.984;2023-06-10T01:38:53;16.00;99.90
57434;DHT22;43277;52.672;6.984;2023-06-10T01:41:19;16.00;99.90
57434;DHT22;43277;52.672;6.984;2023-06-10T01:43:47;16.00;99.90
57434;DHT22;43277;52.672;6.984;2023-06-10T01:46:14;16.00;99.90
57434;DHT22;43277;52.672;6.984;2023-06-10T01:48:42;16.00;99.90
57434;DHT22;43277;52.672;6.984;2023-06-10T01:51:07;16.00;99.90
57434;DHT22;43277;52.672;6.984;2023-06-10T01:53:33;16.00;99.90
57434;DHT22;43277;52.672;6.984;2023-06-10T01:55:59;15.90;99.90
57434;DHT22;43277;52.672;6.984;2023-06-10T01:58:25;16.00;99.90
57434;DHT22;43277;52.672;6.984;2023-06-10T02:00:51;15.90;99.90
57434;DHT22;43277;52.672;6.984;2023-06-10T02:03:16;15.90;99.90
57434;DHT22;43277;52.672;6.984;2023-06-10T02:05:42;15.90;99.90
57434;DHT22;43277;52.672;6.984;2023-06-10T02:08:07;15.80;99.90
57434;DHT22;43277;52.672;6.984;2023-06-10T02:10:33;15.70;99.90
57434;DHT22;43277;52.672;6.984;2023-06-10T02:12:59;15.80;99.90
57434;DHT22;43277;52.672;6.984;2023-06-10T02:15:25;15.70;99.90
57434;DHT22;43277;52.672;6.984;2023-06-10T02:17:52;15.70;99.90
57434;DHT22;43277;52.672;6.984;2023-06-10T02:20:17;15.70;99.90
57434;DHT22;43277;52.672;6.984;2023-06-10T02:22:43;15.60;99.90
57434;DHT22;43277;52.672;6.984;2023-06-10T02:25:09;15.60;99.90
57434;DHT22;43277;52.672;6.984;2023-06-10T02:27:35;15.60;99.90
57434;DHT22;43277;52.672;6.984;2023-06-10T02:30:00;15.50;99.90
57434;DHT22;43277;52.672;6.984;2023-06-10T02:32:26;15.40;99.90
57434;DHT22;43277;52.672;6.984;2023-06-10T02:34:52;15.50;99.90
57434;DHT22;43277;52.672;6.984;2023-06-10T02:37:18;15.50;99.90
57434;DHT22;43277;52.672;6.984;2023-06-10T02:39:44;15.40;99.90
57434;DHT22;43277;52.672;6.984;2023-06-10T02:42:10;15.40;99.90
57434;DHT22;43277;52.672;6.984;2023-06-10T02:44:36;15.30;99.90
57434;DHT22;43277;52.672;6.984;2023-06-10T02:47:02;15.30;99.90
57434;DHT22;43277;52.672;6.984;2023-06-10T02:49:27;15.30;99.90
57434;DHT22;43277;52.672;6.984;2023-06-10T02:51:53;15.20;99.90
57434;DHT22;43277;52.672;6.984;2023-06-10T02:54:21;15.20;99.90
57434;DHT22;43277;52.672;6.984;2023-06-10T02:56:47;15.20;99.90
57434;DHT22;43277;52.672;6.984;2023-06-10T02:59:13;15.20;99.90
57434;DHT22;43277;52.672;6.984;2023-06-10T03:01:40;15.10;99.90
57434;DHT22;43277;52.672;6.984;2023-06-10T03:04:06;15.10;99.90
57434;DHT22;43277;52.672;6.984;2023-06-10T03:06:32;15.00;99.90
57434;DHT22;43277;52.672;6.984;2023-06-10T03:09:01;15.00;99.90
57434;DHT22;43277;52.672;6.984;2023-06-10T03:11:30;15.00;99.90
57434;DHT22;43277;52.672;6.984;2023-06-10T03:13:57;14.90;99.90
57434;DHT22;43277;52.672;6.984;2023-06-10T03:16:23;14.90;99.90
57434;DHT22;43277;52.672;6.984;2023-06-10T03:18:50;14.80;99.90
57434;DHT22;43277;52.672;6.984;2023-06-10T03:21:16;14.80;99.90
57434;DHT22;43277;52.672;6.984;2023-06-10T03:23:41;14.80;99.90
57434;DHT22;43277;52.672;6.984;2023-06-10T03:26:07;14.70;99.90
57434;DHT22;43277;52.672;6.984;2023-06-10T03:28:33;14.70;99.90
57434;DHT22;43277;52.672;6.984;2023-06-10T03:30:59;14.70;99.90
57434;DHT22;43277;52.672;6.984;2023-06-10T03:33:24;14.70;99.90
57434;DHT22;43277;52.672;6.984;2023-06-10T03:35:51;14.70;99.90
57434;DHT22;43277;52.672;6.984;2023-06-10T03:38:17;14.70;99.90
57434;DHT22;43277;52.672;6.984;2023-06-10T03:40:42;14.60;99.90
57434;DHT22;43277;52.672;6.984;2023-06-10T03:43:08;14.70;99.90
57434;DHT22;43277;52.672;6.984;2023-06-10T03:45:34;14.70;99.90
57434;DHT22;43277;52.672;6.984;2023-06-10T03:48:01;14.60;99.90
57434;DHT22;43277;52.672;6.984;2023-06-10T03:50:28;14.60;99.90
57434;DHT22;43277;52.672;6.984;2023-06-10T03:52:54;14.60;99.90
57434;DHT22;43277;52.672;6.984;2023-06-10T03:55:20;14.60;99.90
57434;DHT22;43277;52.672;6.984;2023-06-10T03:57:47;14.70;99.90
57434;DHT22;43277;52.672;6.984;2023-06-10T04:00:14;14.60;99.90
57434;DHT22;43277;52.672;6.984;2023-06-10T04:02:41;14.60;99.90
57434;DHT22;43277;52.672;6.984;2023-06-10T04:05:13;14.70;99.90
57434;DHT22;43277;52.672;6.984;2023-06-10T04:07:39;14.60;99.90
57434;DHT22;43277;52.672;6.984;2023-06-10T04:10:07;14.60;99.90
57434;DHT22;43277;52.672;6.984;2023-06-10T04:12:33;14.60;99.90
57434;DHT22;43277;52.672;6.984;2023-06-10T04:14:58;14.70;99.90
57434;DHT22;43277;52.672;6.984;2023-06-10T04:17:25;14.70;99.90
57434;DHT22;43277;52.672;6.984;2023-06-10T04:19:50;14.70;99.90
57434;DHT22;43277;52.672;6.984;2023-06-10T04:22:16;14.70;99.90
57434;DHT22;43277;52.672;6.984;2023-06-10T04:24:43;14.80;99.90
57434;DHT22;43277;52.672;6.984;2023-06-10T04:27:09;14.80;99.90
57434;DHT22;43277;52.672;6.984;2023-06-10T04:29:35;14.90;99.90
57434;DHT22;43277;52.672;6.984;2023-06-10T04:32:02;14.80;99.90
57434;DHT22;43277;52.672;6.984;2023-06-10T04:34:27;14.90;99.90
57434;DHT22;43277;52.672;6.984;2023-06-10T04:36:53;14.90;99.90
57434;DHT22;43277;52.672;6.984;2023-06-10T04:39:19;15.00;99.90
57434;DHT22;43277;52.672;6.984;2023-06-10T04:41:45;15.00;99.90
57434;DHT22;43277;52.672;6.984;2023-06-10T04:44:11;15.00;99.90
57434;DHT22;43277;52.672;6.984;2023-06-10T04:46:37;15.10;99.90
57434;DHT22;43277;52.672;6.984;2023-06-10T04:49:03;15.00;99.90
57434;DHT22;43277;52.672;6.984;2023-06-10T04:51:30;15.20;99.90
57434;DHT22;43277;52.672;6.984;2023-06-10T04:53:57;15.30;99.90
57434;DHT22;43277;52.672;6.984;2023-06-10T04:56:23;15.30;99.90
57434;DHT22;43277;52.672;6.984;2023-06-10T04:58:49;15.30;99.90
57434;DHT22;43277;52.672;6.984;2023-06-10T05:01:15;15.30;99.90
57434;DHT22;43277;52.672;6.984;2023-06-10T05:03:41;15.40;99.90
57434;DHT22;43277;52.672;6.984;2023-06-10T05:06:06;15.60;99.90
57434;DHT22;43277;52.672;6.984;2023-06-10T05:08:32;15.60;99.90
57434;DHT22;43277;52.672;6.984;2023-06-10T05:10:58;15.60;99.90
57434;DHT22;43277;52.672;6.984;2023-06-10T05:13:24;15.60;99.90
57434;DHT22;43277;52.672;6.984;2023-06-10T05:15:49;15.60;99.90
57434;DHT22;43277;52.672;6.984;2023-06-10T05:18:15;15.80;99.90
57434;DHT22;43277;52.672;6.984;2023-06-10T05:20:41;15.90;99.90
57434;DHT22;43277;52.672;6.984;2023-06-10T05:23:06;15.90;99.90
57434;DHT22;43277;52.672;6.984;2023-06-10T05:25:32;16.00;99.90
57434;DHT22;43277;52.672;6.984;2023-06-10T05:27:59;16.10;99.90
57434;DHT22;43277;52.672;6.984;2023-06-10T05:30:25;16.10;99.90
57434;DHT22;43277;52.672;6.984;2023-06-10T05:32:51;16.20;99.90
57434;DHT22;43277;52.672;6.984;2023-06-10T05:35:18;16.30;99.90
57434;DHT22;43277;52.672;6.984;2023-06-10T05:37:44;16.40;99.90
57434;DHT22;43277;52.672;6.984;2023-06-10T05:40:10;16.40;99.90
57434;DHT22;43277;52.672;6.984;2023-06-10T05:42:35;16.50;99.90
57434;DHT22;43277;52.672;6.984;2023-06-10T05:45:01;16.60;99.90
57434;DHT22;43277;52.672;6.984;2023-06-10T05:47:27;16.70;99.90
57434;DHT22;43277;52.672;6.984;2023-06-10T05:49:53;16.80;99.90
57434;DHT22;43277;52.672;6.984;2023-06-10T05:52:19;16.80;99.90
57434;DHT22;43277;52.672;6.984;2023-06-10T05:54:45;17.00;99.90
57434;DHT22;43277;52.672;6.984;2023-06-10T05:57:10;17.00;99.90
57434;DHT22;43277;52.672;6.984;2023-06-10T05:59:36;17.00;99.90
57434;DHT22;43277;52.672;6.984;2023-06-10T06:02:02;17.20;99.90
57434;DHT22;43277;52.672;6.984;2023-06-10T06:04:28;17.30;99.90
57434;DHT22;43277;52.672;6.984;2023-06-10T06:06:53;17.40;99.90
57434;DHT22;43277;52.672;6.984;2023-06-10T06:09:19;17.50;99.90
57434;DHT22;43277;52.672;6.984;2023-06-10T06:11:44;17.60;99.90
57434;DHT22;43277;52.672;6.984;2023-06-10T06:14:10;17.70;99.90
57434;DHT22;43277;52.672;6.984;2023-06-10T06:16:35;17.70;99.90
57434;DHT22;43277;52.672;6.984;2023-06-10T06:19:01;17.90;99.90
57434;DHT22;43277;52.672;6.984;2023-06-10T06:21:27;18.00;99.90
57434;DHT22;43277;52.672;6.984;2023-06-10T06:23:52;18.20;99.90
57434;DHT22;43277;52.672;6.984;2023-06-10T06:26:18;18.30;99.90
57434;DHT22;43277;52.672;6.984;2023-06-10T06:28:43;18.40;99.90
57434;DHT22;43277;52.672;6.984;2023-06-10T06:31:09;18.50;99.90
57434;DHT22;43277;52.672;6.984;2023-06-10T06:33:35;18.60;99.90
57434;DHT22;43277;52.672;6.984;2023-06-10T06:36:00;18.70;99.90
57434;DHT22;43277;52.672;6.984;2023-06-10T06:38:26;18.80;99.90
57434;DHT22;43277;52.672;6.984;2023-06-10T06:40:52;18.90;99.90
57434;DHT22;43277;52.672;6.984;2023-06-10T06:43:17;19.00;99.90
57434;DHT22;43277;52.672;6.984;2023-06-10T06:45:44;19.10;99.90
57434;DHT22;43277;52.672;6.984;2023-06-10T06:48:11;19.20;99.90
57434;DHT22;43277;52.672;6.984;2023-06-10T06:50:36;19.30;99.90
57434;DHT22;43277;52.672;6.984;2023-06-10T06:53:03;19.40;99.90
57434;DHT22;43277;52.672;6.984;2023-06-10T06:55:28;19.50;99.90
57434;DHT22;43277;52.672;6.984;2023-06-10T06:57:54;19.60;99.90
57434;DHT22;43277;52.672;6.984;2023-06-10T07:00:20;19.60;99.90
57434;DHT22;43277;52.672;6.984;2023-06-10T07:02:46;19.80;99.90
57434;DHT22;43277;52.672;6.984;2023-06-10T07:05:12;19.80;99.90
57434;DHT22;43277;52.672;6.984;2023-06-10T07:07:37;20.00;99.90
57434;DHT22;43277;52.672;6.984;2023-06-10T07:10:03;20.10;99.90
57434;DHT22;43277;52.672;6.984;2023-06-10T07:12:29;20.20;99.90
57434;DHT22;43277;52.672;6.984;2023-06-10T07:14:54;20.20;99.90
57434;DHT22;43277;52.672;6.984;2023-06-10T07:17:20;20.30;99.90
57434;DHT22;43277;52.672;6.984;2023-06-10T07:19:46;20.40;99.90
57434;DHT22;43277;52.672;6.984;2023-06-10T07:22:11;20.50;99.90
57434;DHT22;43277;52.672;6.984;2023-06-10T07:24:37;20.70;99.90
57434;DHT22;43277;52.672;6.984;2023-06-10T07:27:03;20.80;99.90
57434;DHT22;43277;52.672;6.984;2023-06-10T07:29:28;20.90;99.90
57434;DHT22;43277;52.672;6.984;2023-06-10T07:31:54;20.90;99.90
57434;DHT22;43277;52.672;6.984;2023-06-10T07:34:20;21.10;99.90
57434;DHT22;43277;52.672;6.984;2023-06-10T07:36:45;21.20;99.90
57434;DHT22;43277;52.672;6.984;2023-06-10T07:39:11;21.30;99.90
57434;DHT22;43277;52.672;6.984;2023-06-10T07:41:37;21.40;99.90
57434;DHT22;43277;52.672;6.984;2023-06-10T07:44:02;21.50;99.90
57434;DHT22;43277;52.672;6.984;2023-06-10T07:46:28;21.70;99.90
57434;DHT22;43277;52.672;6.984;2023-06-10T07:48:54;21.80;99.90
57434;DHT22;43277;52.672;6.984;2023-06-10T07:51:20;21.80;99.90
57434;DHT22;43277;52.672;6.984;2023-06-10T07:53:46;22.00;99.90
57434;DHT22;43277;52.672;6.984;2023-06-10T07:56:12;22.10;99.90
57434;DHT22;43277;52.672;6.984;2023-06-10T07:58:38;22.20;99.90
57434;DHT22;43277;52.672;6.984;2023-06-10T08:01:03;22.30;99.90
57434;DHT22;43277;52.672;6.984;2023-06-10T08:03:29;22.40;99.90
57434;DHT22;43277;52.672;6.984;2023-06-10T08:05:55;22.50;99.90
57434;DHT22;43277;52.672;6.984;2023-06-10T08:08:20;22.60;99.90
57434;DHT22;43277;52.672;6.984;2023-06-10T08:10:46;22.70;99.90
57434;DHT22;43277;52.672;6.984;2023-06-10T08:13:12;22.80;99.90
57434;DHT22;43277;52.672;6.984;2023-06-10T08:15:37;22.90;99.90
57434;DHT22;43277;52.672;6.984;2023-06-10T08:18:03;23.00;99.70
57434;DHT22;43277;52.672;6.984;2023-06-10T08:20:29;23.20;99.00
57434;DHT22;43277;52.672;6.984;2023-06-10T08:22:54;23.30;97.20
57434;DHT22;43277;52.672;6.984;2023-06-10T08:25:20;23.40;98.90
57434;DHT22;43277;52.672;6.984;2023-06-10T08:27:47;23.40;98.00
57434;DHT22;43277;52.672;6.984;2023-06-10T08:30:13;23.50;97.30
57434;DHT22;43277;52.672;6.984;2023-06-10T08:32:39;23.60;97.00
57434;DHT22;43277;52.672;6.984;2023-06-10T08:35:05;23.80;96.00
57434;DHT22;43277;52.672;6.984;2023-06-10T08:37:31;23.80;95.80
57434;DHT22;43277;52.672;6.984;2023-06-10T08:39:57;24.00;97.30
57434;DHT22;43277;52.672;6.984;2023-06-10T08:42:42;24.10;96.90
57434;DHT22;43277;52.672;6.984;2023-06-10T08:45:14;24.20;96.60
57434;DHT22;43277;52.672;6.984;2023-06-10T08:47:45;24.30;95.70
57434;DHT22;43277;52.672;6.984;2023-06-10T08:50:11;24.50;95.50
57434;DHT22;43277;52.672;6.984;2023-06-10T08:52:42;24.60;94.90
57434;DHT22;43277;52.672;6.984;2023-06-10T08:57:52;24.80;94.40
57434;DHT22;43277;52.672;6.984;2023-06-10T09:00:18;24.80;94.60
57434;DHT22;43277;52.672;6.984;2023-06-10T09:02:44;24.90;94.50
57434;DHT22;43277;52.672;6.984;2023-06-10T09:05:10;25.10;94.60
57434;DHT22;43277;52.672;6.984;2023-06-10T09:07:36;25.20;93.20
57434;DHT22;43277;52.672;6.984;2023-06-10T09:10:03;25.30;91.30
57434;DHT22;43277;52.672;6.984;2023-06-10T09:12:32;25.40;92.40
57434;DHT22;43277;52.672;6.984;2023-06-10T09:14:58;25.50;92.50
57434;DHT22;43277;52.672;6.984;2023-06-10T09:17:24;25.60;91.00
57434;DHT22;43277;52.672;6.984;2023-06-10T09:19:50;25.70;86.50
57434;DHT22;43277;52.672;6.984;2023-06-10T09:22:19;25.80;87.40
57434;DHT22;43277;52.672;6.984;2023-06-10T09:24:46;25.90;85.20
57434;DHT22;43277;52.672;6.984;2023-06-10T09:27:12;26.00;83.90
57434;DHT22;43277;52.672;6.984;2023-06-10T09:29:54;26.10;83.80
57434;DHT22;43277;52.672;6.984;2023-06-10T09:32:20;26.30;84.10
57434;DHT22;43277;52.672;6.984;2023-06-10T09:34:46;26.40;84.40
57434;DHT22;43277;52.672;6.984;2023-06-10T09:37:12;26.60;85.10
57434;DHT22;43277;52.672;6.984;2023-06-10T09:39:39;26.70;83.90
57434;DHT22;43277;52.672;6.984;2023-06-10T09:42:18;26.80;81.30
57434;DHT22;43277;52.672;6.984;2023-06-10T09:44:51;27.00;79.30
57434;DHT22;43277;52.672;6.984;2023-06-10T09:47:21;27.10;79.10
57434;DHT22;43277;52.672;6.984;2023-06-10T09:49:50;27.20;77.00
57434;DHT22;43277;52.672;6.984;2023-06-10T09:52:22;27.30;76.30
57434;DHT22;43277;52.672;6.984;2023-06-10T09:54:49;27.40;75.50
57434;DHT22;43277;52.672;6.984;2023-06-10T09:57:16;27.50;71.70
57434;DHT22;43277;52.672;6.984;2023-06-10T09:59:42;27.60;76.10
57434;DHT22;43277;52.672;6.984;2023-06-10T10:02:14;27.70;71.40
57434;DHT22;43277;52.672;6.984;2023-06-10T10:04:40;27.90;71.80
57434;DHT22;43277;52.672;6.984;2023-06-10T10:07:05;27.90;68.10
57434;DHT22;43277;52.672;6.984;2023-06-10T10:09:32;28.00;64.90
57434;DHT22;43277;52.672;6.984;2023-06-10T10:11:59;28.00;68.20
57434;DHT22;43277;52.672;6.984;2023-06-10T10:14:28;28.20;70.30
57434;DHT22;43277;52.672;6.984;2023-06-10T10:16:57;28.30;68.90
57434;DHT22;43277;52.672;6.984;2023-06-10T10:19:30;28.50;69.50
57434;DHT22;43277;52.672;6.984;2023-06-10T10:22:04;28.60;70.70
57434;DHT22;43277;52.672;6.984;2023-06-10T10:24:35;28.70;68.60
57434;DHT22;43277;52.672;6.984;2023-06-10T10:27:06;28.90;64.70
57434;DHT22;43277;52.672;6.984;2023-06-10T10:29:39;29.00;63.90
57434;DHT22;43277;52.672;6.984;2023-06-10T10:32:07;29.00;63.90
57434;DHT22;43277;52.672;6.984;2023-06-10T10:34:35;29.10;62.70
57434;DHT22;43277;52.672;6.984;2023-06-10T10:37:02;29.20;59.00
57434;DHT22;43277;52.672;6.984;2023-06-10T10:39:29;29.30;59.90
57434;DHT22;43277;52.672;6.984;2023-06-10T10:41:55;29.50;56.80
57434;DHT22;43277;52.672;6.984;2023-06-10T10:44:22;29.60;51.70
57434;DHT22;43277;52.672;6.984;2023-06-10T10:46:49;29.60;54.90
57434;DHT22;43277;52.672;6.984;2023-06-10T10:49:17;29.80;50.60
57434;DHT22;43277;52.672;6.984;2023-06-10T10:52:00;29.90;53.00
57434;DHT22;43277;52.672;6.984;2023-06-10T10:54:30;30.00;53.70
57434;DHT22;43277;52.672;6.984;2023-06-10T11:02:40;30.40;57.10
57434;DHT22;43277;52.672;6.984;2023-06-10T11:05:07;30.50;56.10
57434;DHT22;43277;52.672;6.984;2023-06-10T11:07:34;30.60;55.00
57434;DHT22;43277;52.672;6.984;2023-06-10T11:10:09;30.70;55.70
57434;DHT22;43277;52.672;6.984;2023-06-10T11:12:51;30.80;55.80
57434;DHT22;43277;52.672;6.984;2023-06-10T11:15:20;31.00;52.70
57434;DHT22;43277;52.672;6.984;2023-06-10T11:23:07;31.20;51.10
57434;DHT22;43277;52.672;6.984;2023-06-10T11:25:39;31.30;51.40
57434;DHT22;43277;52.672;6.984;2023-06-10T11:28:18;31.40;51.50
57434;DHT22;43277;52.672;6.984;2023-06-10T11:30:44;31.60;52.10
57434;DHT22;43277;52.672;6.984;2023-06-10T11:33:16;31.60;51.50
57434;DHT22;43277;52.672;6.984;2023-06-10T11:35:42;31.80;50.80
57434;DHT22;43277;52.672;6.984;2023-06-10T11:38:08;31.90;52.00
57434;DHT22;43277;52.672;6.984;2023-06-10T11:40:36;32.00;50.30
57434;DHT22;43277;52.672;6.984;2023-06-10T11:43:03;32.10;49.80
57434;DHT22;43277;52.672;6.984;2023-06-10T11:45:29;32.20;50.00
57434;DHT22;43277;52.672;6.984;2023-06-10T11:47:56;32.40;47.90
57434;DHT22;43277;52.672;6.984;2023-06-10T11:50:32;32.50;47.10
57434;DHT22;43277;52.672;6.984;2023-06-10T11:52:58;32.50;46.00
57434;DHT22;43277;52.672;6.984;2023-06-10T11:55:43;32.60;46.80
57434;DHT22;43277;52.672;6.984;2023-06-10T11:58:16;32.70;45.90
57434;DHT22;43277;52.672;6.984;2023-06-10T12:00:50;32.80;45.50
57434;DHT22;43277;52.672;6.984;2023-06-10T12:03:17;33.00;42.10
57434;DHT22;43277;52.672;6.984;2023-06-10T12:06:02;32.90;43.70
57434;DHT22;43277;52.672;6.984;2023-06-10T12:08:29;33.00;43.40
57434;DHT22;43277;52.672;6.984;2023-06-10T12:10:55;33.10;40.20
57434;DHT22;43277;52.672;6.984;2023-06-10T12:13:22;33.30;42.10
57434;DHT22;43277;52.672;6.984;2023-06-10T12:15:49;33.30;40.70
57434;DHT22;43277;52.672;6.984;2023-06-10T12:18:18;33.50;37.50
57434;DHT22;43277;52.672;6.984;2023-06-10T12:20:44;33.50;38.40
57434;DHT22;43277;52.672;6.984;2023-06-10T12:23:11;33.50;39.50
57434;DHT22;43277;52.672;6.984;2023-06-10T12:25:37;33.60;39.30
57434;DHT22;43277;52.672;6.984;2023-06-10T12:28:04;33.70;37.80
57434;DHT22;43277;52.672;6.984;2023-06-10T12:30:31;34.10;35.90
57434;DHT22;43277;52.672;6.984;2023-06-10T12:32:58;34.30;38.20
57434;DHT22;43277;52.672;6.984;2023-06-10T12:35:27;34.40;37.40
57434;DHT22;43277;52.672;6.984;2023-06-10T12:38:00;34.50;37.10
57434;DHT22;43277;52.672;6.984;2023-06-10T12:40:30;34.50;34.50
57434;DHT22;43277;52.672;6.984;2023-06-10T12:43:00;34.60;32.90
57434;DHT22;43277;52.672;6.984;2023-06-10T12:45:30;34.60;36.50
57434;DHT22;43277;52.672;6.984;2023-06-10T12:48:07;34.60;35.00
57434;DHT22;43277;52.672;6.984;2023-06-10T12:50:35;34.60;33.60
57434;DHT22;43277;52.672;6.984;2023-06-10T12:53:03;34.60;34.50
57434;DHT22;43277;52.672;6.984;2023-06-10T12:55:28;34.60;33.10
57434;DHT22;43277;52.672;6.984;2023-06-10T12:57:54;34.80;33.40
57434;DHT22;43277;52.672;6.984;2023-06-10T13:00:21;34.70;31.40
57434;DHT22;43277;52.672;6.984;2023-06-10T13:02:48;34.70;33.20
57434;DHT22;43277;52.672;6.984;2023-06-10T13:05:14;34.90;32.50
57434;DHT22;43277;52.672;6.984;2023-06-10T13:07:40;34.90;32.40
57434;DHT22;43277;52.672;6.984;2023-06-10T13:10:07;34.90;34.60
57434;DHT22;43277;52.672;6.984;2023-06-10T13:12:33;34.90;32.50
57434;DHT22;43277;52.672;6.984;2023-06-10T13:14:58;34.90;32.80
57434;DHT22;43277;52.672;6.984;2023-06-10T13:17:24;34.90;33.00
57434;DHT22;43277;52.672;6.984;2023-06-10T13:19:50;35.00;31.60
57434;DHT22;43277;52.672;6.984;2023-06-10T13:22:16;35.10;31.00
57434;DHT22;43277;52.672;6.984;2023-06-10T13:24:41;35.20;32.40
57434;DHT22;43277;52.672;6.984;2023-06-10T13:27:09;35.30;30.70
57434;DHT22;43277;52.672;6.984;2023-06-10T13:29:34;35.40;29.30
57434;DHT22;43277;52.672;6.984;2023-06-10T13:32:00;35.50;29.30
57434;DHT22;43277;52.672;6.984;2023-06-10T13:34:25;35.60;28.90
57434;DHT22;43277;52.672;6.984;2023-06-10T13:36:51;35.50;30.50
57434;DHT22;43277;52.672;6.984;2023-06-10T13:39:16;35.40;29.90
57434;DHT22;43277;52.672;6.984;2023-06-10T13:41:42;35.50;31.70
57434;DHT22;43277;52.672;6.984;2023-06-10T13:44:08;35.60;30.70
57434;DHT22;43277;52.672;6.984;2023-06-10T13:46:34;35.70;30.00
57434;DHT22;43277;52.672;6.984;2023-06-10T13:48:59;35.70;31.80
57434;DHT22;43277;52.672;6.984;2023-06-10T13:51:25;35.70;32.30
57434;DHT22;43277;52.672;6.984;2023-06-10T13:53:51;35.90;32.00
57434;DHT22;43277;52.672;6.984;2023-06-10T13:56:18;35.90;32.00
57434;DHT22;43277;52.672;6.984;2023-06-10T13:58:43;35.80;32.30
57434;DHT22;43277;52.672;6.984;2023-06-10T14:01:09;35.80;32.20
57434;DHT22;43277;52.672;6.984;2023-06-10T14:03:35;36.00;32.20
57434;DHT22;43277;52.672;6.984;2023-06-10T14:06:01;36.10;32.90
57434;DHT22;43277;52.672;6.984;2023-06-10T14:08:27;36.10;32.40
57434;DHT22;43277;52.672;6.984;2023-06-10T14:10:52;36.10;30.90
57434;DHT22;43277;52.672;6.984;2023-06-10T14:13:18;36.00;31.70
57434;DHT22;43277;52.672;6.984;2023-06-10T14:15:44;36.00;30.00
57434;DHT22;43277;52.672;6.984;2023-06-10T14:18:10;36.00;31.30
57434;DHT22;43277;52.672;6.984;2023-06-10T14:20:35;35.90;32.30
57434;DHT22;43277;52.672;6.984;2023-06-10T14:23:01;36.00;30.70
57434;DHT22;43277;52.672;6.984;2023-06-10T14:25:27;35.80;31.50
57434;DHT22;43277;52.672;6.984;2023-06-10T14:27:53;35.80;29.40
57434;DHT22;43277;52.672;6.984;2023-06-10T14:30:18;35.70;30.20
57434;DHT22;43277;52.672;6.984;2023-06-10T14:32:44;35.90;30.10
57434;DHT22;43277;52.672;6.984;2023-06-10T14:35:10;35.90;30.60
57434;DHT22;43277;52.672;6.984;2023-06-10T14:37:36;35.80;30.00
57434;DHT22;43277;52.672;6.984;2023-06-10T14:40:03;35.80;30.20
57434;DHT22;43277;52.672;6.984;2023-06-10T14:42:29;35.90;29.10
57434;DHT22;43277;52.672;6.984;2023-06-10T14:44:55;35.80;31.60
57434;DHT22;43277;52.672;6.984;2023-06-10T14:47:20;35.70;31.50
57434;DHT22;43277;52.672;6.984;2023-06-10T14:49:46;35.80;32.60
57434;DHT22;43277;52.672;6.984;2023-06-10T14:52:11;35.80;31.40
57434;DHT22;43277;52.672;6.984;2023-06-10T14:54:37;35.80;31.60
57434;DHT22;43277;52.672;6.984;2023-06-10T14:57:03;35.90;31.10
57434;DHT22;43277;52.672;6.984;2023-06-10T14:59:28;36.00;31.00
57434;DHT22;43277;52.672;6.984;2023-06-10T15:01:54;36.10;31.60
57434;DHT22;43277;52.672;6.984;2023-06-10T15:04:19;35.90;29.50
57434;DHT22;43277;52.672;6.984;2023-06-10T15:06:45;36.00;30.80
57434;DHT22;43277;52.672;6.984;2023-06-10T15:09:10;36.10;30.00
57434;DHT22;43277;52.672;6.984;2023-06-10T15:11:36;36.10;30.40
57434;DHT22;43277;52.672;6.984;2023-06-10T15:14:03;36.20;30.00
57434;DHT22;43277;52.672;6.984;2023-06-10T15:16:28;36.30;30.80
57434;DHT22;43277;52.672;6.984;2023-06-10T15:18:54;36.30;31.30
57434;DHT22;43277;52.672;6.984;2023-06-10T15:21:20;36.20;30.40
57434;DHT22;43277;52.672;6.984;2023-06-10T15:23:45;36.20;28.50
57434;DHT22;43277;52.672;6.984;2023-06-10T15:26:12;36.20;28.90
57434;DHT22;43277;52.672;6.984;2023-06-10T15:28:37;36.20;28.70
57434;DHT22;43277;52.672;6.984;2023-06-10T15:31:03;36.10;29.40
57434;DHT22;43277;52.672;6.984;2023-06-10T15:33:29;36.10;29.70
57434;DHT22;43277;52.672;6.984;2023-06-10T15:35:55;36.20;29.40
57434;DHT22;43277;52.672;6.984;2023-06-10T15:38:20;36.30;29.50
57434;DHT22;43277;52.672;6.984;2023-06-10T15:40:46;36.20;30.80
57434;DHT22;43277;52.672;6.984;2023-06-10T15:43:11;36.20;31.20
57434;DHT22;43277;52.672;6.984;2023-06-10T15:45:38;36.20;30.30
57434;DHT22;43277;52.672;6.984;2023-06-10T15:48:04;36.20;30.20